createdAt,value
2022-11-13T00:01:18.972Z,28.63
2022-11-13T00:03:48.914Z,45.80
2022-11-13T00:06:19.415Z,55.23
2022-11-13T00:08:47.942Z,47.60
2022-11-13T00:11:18.894Z,38.03
2022-11-13T00:13:47.927Z,43.97
2022-11-13T00:16:17.535Z,35.80
2022-11-13T00:18:46.209Z,89.00
2022-11-13T00:21:16.438Z,71.93
2022-11-13T00:23:45.928Z,54.97
2022-11-13T00:26:16.409Z,43.67
2022-11-13T00:28:45.098Z,65.13
2022-11-13T00:31:14.964Z,61.87
2022-11-13T00:34:05.665Z,57.63
2022-11-13T00:36:31.104Z,40.60
2022-11-13T00:39:00.505Z,63.53
2022-11-13T00:41:28.535Z,59.83
2022-11-13T00:43:56.466Z,48.60
2022-11-13T00:46:24.369Z,50.47
2022-11-13T00:48:52.252Z,33.83
2022-11-13T00:51:20.214Z,38.30
2022-11-13T00:53:48.336Z,66.33
2022-11-13T00:56:17.704Z,37.87
2022-11-13T00:58:45.666Z,45.57
2022-11-13T01:01:15.556Z,42.77
2022-11-13T01:03:43.720Z,29.33
2022-11-13T01:06:16.809Z,43.37
2022-11-13T01:08:44.771Z,33.77
2022-11-13T01:11:13.911Z,30.17
2022-11-13T01:13:45.257Z,33.47
2022-11-13T01:16:15.472Z,42.03
2022-11-13T01:18:44.260Z,34.30
2022-11-13T01:21:14.340Z,63.07
2022-11-13T01:23:43.832Z,35.90
2022-11-13T01:26:13.926Z,58.67
2022-11-13T01:28:45.131Z,34.87
2022-11-13T01:31:16.652Z,68.40
2022-11-13T01:33:44.948Z,84.13
2022-11-13T01:36:15.099Z,42.17
2022-11-13T01:38:43.096Z,37.77
2022-11-13T01:41:22.896Z,27.77
2022-11-13T01:43:54.496Z,40.93
2022-11-13T01:46:26.379Z,62.10
2022-11-13T01:48:59.466Z,67.43
2022-11-13T01:51:30.722Z,55.83
2022-11-13T01:54:00.129Z,50.70
2022-11-13T01:56:28.551Z,31.93
2022-11-13T01:59:06.124Z,84.43
2022-11-13T02:01:34.273Z,40.60
2022-11-13T02:04:05.548Z,50.20
2022-11-13T02:06:41.593Z,27.60
2022-11-13T02:09:10.857Z,33.73
2022-11-13T02:11:39.701Z,36.20
2022-11-13T02:14:10.705Z,39.33
2022-11-13T02:16:41.053Z,32.23
2022-11-13T02:19:14.129Z,29.70
2022-11-13T02:21:51.698Z,20.97
2022-11-13T02:24:28.047Z,25.67
2022-11-13T02:27:00.066Z,24.13
2022-11-13T02:29:28.020Z,33.97
2022-11-13T02:31:56.470Z,41.60
2022-11-13T02:34:26.616Z,36.40
2022-11-13T02:36:54.672Z,20.90
2022-11-13T02:39:24.935Z,33.80
2022-11-13T02:41:53.014Z,38.67
2022-11-13T02:44:22.910Z,41.93
2022-11-13T02:46:50.774Z,25.43
2022-11-13T02:49:18.649Z,25.93
2022-11-13T02:51:50.152Z,28.17
2022-11-13T02:54:18.445Z,31.97
2022-11-13T02:56:47.753Z,35.03
2022-11-13T02:59:15.670Z,26.87
2022-11-13T03:01:43.828Z,36.10
2022-11-13T03:04:11.862Z,20.80
2022-11-13T03:06:40.223Z,18.63
2022-11-13T03:09:08.333Z,18.03
2022-11-13T03:11:36.251Z,18.03
2022-11-13T03:14:05.731Z,21.83
2022-11-13T03:16:33.698Z,15.70
2022-11-13T03:19:01.653Z,16.30
2022-11-13T03:21:29.778Z,17.23
2022-11-13T03:23:57.913Z,17.13
2022-11-13T03:26:28.251Z,15.63
2022-11-13T03:28:56.593Z,16.63
2022-11-13T03:31:25.823Z,16.30
2022-11-13T03:33:54.073Z,15.57
2022-11-13T03:36:22.348Z,17.93
2022-11-13T03:38:50.230Z,16.03
2022-11-13T03:41:18.142Z,17.90
2022-11-13T03:43:46.138Z,16.40
2022-11-13T03:46:14.093Z,17.53
2022-11-13T03:48:43.358Z,14.53
2022-11-13T03:51:11.380Z,15.87
2022-11-13T03:53:39.245Z,14.87
2022-11-13T03:56:07.837Z,15.57
2022-11-13T03:58:39.956Z,12.90
2022-11-13T04:01:08.293Z,14.00
2022-11-13T04:03:37.193Z,14.17
2022-11-13T04:06:06.917Z,15.17
2022-11-13T04:08:35.735Z,14.40
2022-11-13T04:11:07.924Z,13.53
2022-11-13T04:13:36.009Z,12.20
2022-11-13T04:16:04.297Z,14.60
2022-11-13T04:18:32.766Z,13.40
2022-11-13T04:21:01.441Z,13.33
2022-11-13T04:23:31.114Z,12.63
2022-11-13T04:25:59.553Z,13.87
2022-11-13T04:28:28.230Z,15.43
2022-11-13T04:30:57.060Z,12.43
2022-11-13T04:33:25.077Z,15.07
2022-11-13T04:35:53.029Z,12.70
2022-11-13T04:38:20.934Z,12.10
2022-11-13T04:41:12.490Z,12.57
2022-11-13T04:43:39.486Z,13.40
2022-11-13T04:46:07.500Z,13.03
2022-11-13T04:48:35.736Z,14.77
2022-11-13T04:51:03.778Z,13.60
2022-11-13T04:53:31.784Z,13.07
2022-11-13T04:56:01.100Z,14.37
2022-11-13T04:58:29.405Z,15.17
2022-11-13T05:00:57.587Z,17.77
2022-11-13T05:03:25.529Z,15.93
2022-11-13T05:05:53.401Z,20.93
2022-11-13T05:08:21.260Z,19.33
2022-11-13T05:10:49.271Z,20.57
2022-11-13T05:13:18.507Z,21.17
2022-11-13T05:15:46.576Z,17.37
2022-11-13T05:18:14.513Z,19.97
2022-11-13T05:20:42.456Z,18.73
2022-11-13T05:23:10.328Z,21.20
2022-11-13T05:25:38.309Z,26.00
2022-11-13T05:28:06.484Z,21.97
2022-11-13T05:30:35.811Z,19.70
2022-11-13T05:33:03.654Z,19.03
2022-11-13T05:35:31.639Z,28.47
2022-11-13T05:38:02.022Z,29.93
2022-11-13T05:40:30.530Z,17.87
2022-11-13T05:42:58.498Z,22.20
2022-11-13T05:45:26.568Z,21.63
2022-11-13T05:47:55.972Z,27.57
2022-11-13T05:50:23.891Z,22.63
2022-11-13T05:52:51.814Z,26.60
2022-11-13T05:55:23.202Z,19.23
2022-11-13T05:57:51.579Z,21.20
2022-11-13T06:00:20.109Z,19.20
2022-11-13T06:02:48.204Z,17.37
2022-11-13T06:05:17.460Z,22.37
2022-11-13T06:07:45.368Z,19.83
2022-11-13T06:10:13.620Z,20.40
2022-11-13T06:12:41.585Z,20.27
2022-11-13T06:15:10.321Z,21.07
2022-11-13T06:17:38.308Z,19.57
2022-11-13T06:20:06.810Z,24.27
2022-11-13T06:22:36.186Z,18.83
2022-11-13T06:25:04.305Z,24.33
2022-11-13T06:27:32.286Z,15.97
2022-11-13T06:30:00.215Z,19.37
2022-11-13T06:32:28.121Z,20.30
2022-11-13T06:34:56.108Z,21.90
2022-11-13T06:37:24.022Z,20.97
2022-11-13T06:39:53.323Z,25.83
2022-11-13T06:42:21.292Z,21.47
2022-11-13T06:44:49.139Z,20.37
2022-11-13T06:47:17.046Z,19.37
2022-11-13T06:49:44.964Z,20.70
2022-11-13T06:52:12.883Z,20.30
2022-11-13T06:54:40.738Z,25.10
2022-11-13T06:57:09.973Z,24.57
2022-11-13T06:59:38.084Z,21.20
2022-11-13T07:02:06.049Z,23.70
2022-11-13T07:04:34.085Z,17.00
2022-11-13T07:07:02.145Z,27.03
2022-11-13T07:09:30.060Z,33.63
2022-11-13T07:11:58.081Z,29.70
2022-11-13T07:14:27.423Z,31.23
2022-11-13T07:17:09.277Z,21.13
2022-11-13T07:19:38.207Z,38.17
2022-11-13T07:22:06.197Z,24.57
2022-11-13T07:24:34.152Z,25.60
2022-11-13T07:27:02.409Z,36.57
2022-11-13T07:29:31.882Z,43.53
2022-11-13T07:31:59.785Z,34.07
2022-11-13T07:34:27.806Z,32.07
2022-11-13T07:36:55.708Z,34.93
2022-11-13T07:39:23.911Z,58.53
2022-11-13T07:41:53.794Z,26.03
2022-11-13T07:44:47.838Z,21.20
2022-11-13T07:47:11.078Z,20.53
2022-11-13T07:49:38.994Z,24.73
2022-11-13T07:52:06.922Z,38.10
2022-11-13T07:54:34.949Z,25.33
2022-11-13T07:57:03.046Z,42.93
2022-11-13T07:59:34.644Z,33.67
2022-11-13T08:02:02.599Z,40.30
2022-11-13T08:04:32.456Z,49.63
2022-11-13T08:07:00.484Z,30.17
2022-11-13T08:09:28.453Z,25.07
2022-11-13T08:11:56.377Z,20.17
2022-11-13T08:14:24.287Z,26.07
2022-11-13T08:16:52.272Z,23.30
2022-11-13T08:19:20.126Z,28.70
2022-11-13T08:21:49.383Z,23.67
2022-11-13T08:24:17.401Z,16.30
2022-11-13T08:26:45.279Z,29.80
2022-11-13T08:29:13.270Z,22.63
2022-11-13T08:31:41.170Z,36.90
2022-11-13T08:34:09.059Z,25.70
2022-11-13T08:36:40.776Z,20.10
2022-11-13T08:39:10.695Z,20.93
2022-11-13T08:41:38.586Z,26.23
2022-11-13T08:44:06.678Z,14.30
2022-11-13T08:46:34.623Z,17.97
2022-11-13T08:49:02.576Z,15.13
2022-11-13T08:51:30.540Z,19.57
2022-11-13T08:53:58.531Z,14.40
2022-11-13T08:56:27.846Z,14.57
2022-11-13T08:58:55.912Z,14.63
2022-11-13T09:01:24.053Z,17.53
2022-11-13T09:03:52.454Z,14.63
2022-11-13T09:06:20.625Z,18.00
2022-11-13T09:08:49.035Z,17.10
2022-11-13T09:11:17.687Z,15.60
2022-11-13T09:13:52.035Z,14.20
2022-11-13T09:16:21.131Z,19.10
2022-11-13T09:18:50.811Z,13.20
2022-11-13T09:21:18.836Z,16.03
2022-11-13T09:23:46.805Z,20.80
2022-11-13T09:26:17.755Z,29.13
2022-11-13T09:28:47.081Z,19.87
2022-11-13T09:31:15.304Z,41.87
2022-11-13T09:33:43.363Z,19.03
2022-11-13T09:36:12.958Z,15.23
2022-11-13T09:38:40.901Z,18.77
2022-11-13T09:41:12.538Z,14.80
2022-11-13T09:43:44.630Z,17.87
2022-11-13T09:46:21.085Z,14.20
2022-11-13T09:48:54.097Z,14.17
2022-11-13T09:51:26.122Z,15.93
2022-11-13T09:53:56.262Z,17.90
2022-11-13T09:56:29.346Z,17.03
2022-11-13T09:59:09.489Z,21.33
2022-11-13T10:01:49.790Z,19.20
2022-11-13T10:04:24.602Z,16.07
2022-11-13T10:07:03.490Z,17.43
2022-11-13T10:09:51.765Z,15.37
2022-11-13T10:12:21.376Z,17.33
2022-11-13T10:14:52.286Z,19.43
2022-11-13T10:17:28.267Z,27.23
2022-11-13T10:19:59.961Z,25.23
2022-11-13T10:22:35.678Z,23.73
2022-11-13T10:25:12.825Z,20.70
2022-11-13T10:27:40.963Z,19.30
2022-11-13T10:30:15.828Z,19.47
2022-11-13T10:32:46.202Z,17.13
2022-11-13T10:35:46.401Z,16.77
2022-11-13T10:38:23.079Z,21.03
2022-11-13T10:40:51.141Z,23.73
2022-11-13T10:43:21.385Z,15.97
2022-11-13T10:45:57.510Z,18.40
2022-11-13T10:48:29.185Z,15.03
2022-11-13T10:50:59.952Z,16.60
2022-11-13T10:53:34.028Z,19.47
2022-11-13T10:56:03.211Z,18.70
2022-11-13T10:58:31.540Z,17.40
2022-11-13T11:00:59.871Z,16.60
2022-11-13T11:03:29.376Z,13.37
2022-11-13T11:05:58.837Z,12.23
2022-11-13T11:08:32.135Z,11.53
2022-11-13T11:11:19.900Z,11.43
2022-11-13T11:13:49.042Z,9.57
2022-11-13T11:16:21.546Z,8.67
2022-11-13T11:18:55.968Z,9.23
2022-11-13T11:21:28.740Z,10.57
2022-11-13T11:24:01.656Z,15.93
2022-11-13T11:26:33.472Z,8.20
2022-11-13T11:29:09.754Z,9.23
2022-11-13T11:31:43.281Z,8.43
2022-11-13T11:34:23.290Z,9.17
2022-11-13T11:37:05.341Z,19.60
2022-11-13T11:39:38.837Z,13.90
2022-11-13T11:42:16.874Z,10.50
2022-11-13T11:45:06.461Z,7.83
2022-11-13T11:47:35.119Z,7.27
2022-11-13T11:50:07.790Z,6.27
2022-11-13T11:52:50.514Z,7.83
2022-11-13T11:55:36.047Z,7.00
2022-11-13T11:58:18.466Z,9.93
2022-11-13T12:00:51.193Z,8.77
2022-11-13T12:04:01.225Z,9.83
2022-11-13T12:06:42.121Z,12.27
2022-11-13T12:09:18.130Z,9.53
2022-11-13T12:11:53.746Z,13.93
2022-11-13T12:14:35.576Z,11.77
2022-11-13T12:17:18.456Z,14.03
2022-11-13T12:19:59.760Z,13.07
2022-11-13T12:22:39.380Z,11.50
2022-11-13T12:25:17.082Z,10.73
2022-11-13T12:27:51.687Z,10.87
2022-11-13T12:30:23.229Z,10.07
2022-11-13T12:33:21.946Z,11.20
2022-11-13T12:35:54.898Z,10.53
2022-11-13T12:38:42.631Z,9.43
2022-11-13T12:41:20.718Z,9.00
2022-11-13T12:44:15.615Z,10.40
2022-11-13T12:46:44.128Z,9.97
2022-11-13T12:49:29.778Z,11.43
2022-11-13T12:51:59.912Z,10.90
2022-11-13T12:54:31.083Z,12.87
2022-11-13T12:57:20.064Z,12.13
2022-11-13T12:59:52.669Z,13.03
2022-11-13T13:02:41.631Z,10.57
2022-11-13T13:05:24.805Z,11.87
2022-11-13T13:08:19.308Z,14.10
2022-11-13T13:10:58.572Z,12.13
2022-11-13T13:13:35.018Z,12.00
2022-11-13T13:16:06.851Z,10.27
2022-11-13T13:18:37.212Z,11.10
2022-11-13T13:21:10.867Z,11.30
2022-11-13T13:23:41.247Z,11.23
2022-11-13T13:26:18.691Z,9.53
2022-11-13T13:28:51.210Z,10.50
2022-11-13T13:31:38.224Z,8.77
2022-11-13T13:34:24.968Z,8.37
2022-11-13T13:36:59.696Z,8.27
2022-11-13T13:39:38.169Z,7.90
2022-11-13T13:42:26.963Z,6.73
2022-11-13T13:45:11.854Z,6.60
2022-11-13T13:47:44.071Z,5.93
2022-11-13T13:50:17.539Z,7.93
2022-11-13T13:52:47.965Z,6.97
2022-11-13T13:55:23.626Z,6.30
2022-11-13T13:57:53.222Z,7.13
2022-11-13T14:00:22.127Z,7.77
2022-11-13T14:02:51.559Z,8.93
2022-11-13T14:05:28.397Z,9.10
2022-11-13T14:07:56.575Z,10.40
2022-11-13T14:10:26.534Z,8.33
2022-11-13T14:12:56.726Z,9.13
2022-11-13T14:15:30.318Z,7.63
2022-11-13T14:18:09.562Z,6.80
2022-11-13T14:20:44.278Z,7.83
2022-11-13T14:23:14.730Z,15.27
2022-11-13T14:25:43.151Z,7.53
2022-11-13T14:28:18.450Z,7.27
2022-11-13T14:30:54.968Z,7.63
2022-11-13T14:33:26.686Z,10.23
2022-11-13T14:35:58.079Z,8.17
2022-11-13T14:38:28.735Z,6.87
2022-11-13T14:40:57.617Z,7.00
2022-11-13T14:43:29.891Z,7.13
2022-11-13T14:46:00.040Z,6.63
2022-11-13T14:48:29.590Z,6.07
2022-11-13T14:50:59.886Z,6.83
2022-11-13T14:53:32.206Z,7.47
2022-11-13T14:56:02.474Z,6.20
2022-11-13T14:58:33.798Z,6.87
2022-11-13T15:01:14.973Z,8.20
2022-11-13T15:03:43.700Z,7.53
2022-11-13T15:06:16.925Z,6.17
2022-11-13T15:08:48.288Z,6.57
2022-11-13T15:11:17.485Z,6.43
2022-11-13T15:13:48.336Z,6.43
2022-11-13T15:16:21.218Z,7.40
2022-11-13T15:18:53.252Z,7.10
2022-11-13T15:21:24.321Z,8.67
2022-11-13T15:23:52.453Z,8.40
2022-11-13T15:26:20.688Z,6.10
2022-11-13T15:28:49.957Z,8.10
2022-11-13T15:31:21.409Z,8.97
2022-11-13T15:33:49.629Z,9.40
2022-11-13T15:36:17.918Z,7.10
2022-11-13T15:38:45.925Z,8.83
2022-11-13T15:41:16.714Z,7.57
2022-11-13T15:43:46.737Z,7.60
2022-11-13T15:46:17.981Z,7.43
2022-11-13T15:48:46.456Z,8.60
2022-11-13T15:51:20.127Z,9.93
2022-11-13T15:53:50.353Z,8.10
2022-11-13T15:56:19.090Z,11.40
2022-11-13T15:58:47.050Z,9.10
2022-11-13T16:01:17.293Z,11.60
2022-11-13T16:03:45.714Z,12.37
2022-11-13T16:06:16.656Z,15.17
2022-11-13T16:08:45.203Z,12.10
2022-11-13T16:11:16.168Z,9.07
2022-11-13T16:13:44.254Z,11.27
2022-11-13T16:16:18.586Z,10.80
2022-11-13T16:18:46.607Z,10.53
2022-11-13T16:21:15.206Z,13.43
2022-11-13T16:23:43.478Z,13.07
2022-11-13T16:26:15.680Z,10.43
2022-11-13T16:31:33.042Z,9.90
2022-11-13T16:34:00.925Z,9.03
2022-11-13T16:36:31.978Z,12.43
2022-11-13T16:38:59.949Z,10.73
2022-11-13T16:41:27.940Z,10.67
2022-11-13T16:44:05.126Z,11.47
2022-11-13T16:46:36.560Z,9.23
2022-11-13T16:49:04.694Z,10.00
2022-11-13T16:51:32.584Z,8.50
2022-11-13T16:54:00.475Z,18.00
2022-11-13T16:56:30.623Z,22.23
2022-11-13T16:58:59.565Z,12.23
2022-11-13T17:01:30.707Z,12.13
2022-11-13T17:04:00.589Z,10.07
2022-11-13T17:06:29.787Z,9.77
2022-11-13T17:08:58.945Z,10.10
2022-11-13T17:11:30.676Z,9.47
2022-11-13T17:14:12.217Z,8.53
2022-11-13T17:16:40.151Z,9.60
2022-11-13T17:19:12.385Z,9.47
2022-11-13T17:21:44.204Z,12.70
2022-11-13T17:24:12.511Z,11.17
2022-11-13T17:26:40.423Z,11.13
2022-11-13T17:29:08.804Z,10.27
2022-11-13T17:31:36.798Z,14.53
2022-11-13T17:34:04.708Z,15.80
2022-11-13T17:36:34.092Z,14.47
2022-11-13T17:39:02.168Z,20.57
2022-11-13T17:41:30.212Z,13.53
2022-11-13T17:44:01.525Z,14.87
2022-11-13T17:46:29.635Z,11.20
2022-11-13T17:48:57.664Z,25.30
2022-11-13T17:51:25.639Z,14.73
2022-11-13T17:53:57.728Z,14.50
2022-11-13T17:56:26.178Z,9.60
2022-11-13T17:58:56.985Z,7.90
2022-11-13T18:01:25.132Z,8.73
2022-11-13T18:03:57.080Z,9.97
2022-11-13T18:06:25.507Z,6.97
2022-11-13T18:08:54.733Z,8.47
2022-11-13T18:11:24.892Z,9.23
2022-11-13T18:13:53.436Z,9.70
2022-11-13T18:16:25.513Z,8.47
2022-11-13T18:18:55.703Z,7.80
2022-11-13T18:21:26.218Z,9.27
2022-11-13T18:24:09.040Z,8.47
2022-11-13T18:26:46.544Z,8.27
2022-11-13T18:29:15.552Z,8.53
2022-11-13T18:31:44.538Z,10.47
2022-11-13T18:34:17.208Z,8.60
2022-11-13T18:36:45.209Z,9.43
2022-11-13T18:39:16.811Z,9.37
2022-11-13T18:41:45.077Z,10.47
2022-11-13T18:44:13.280Z,9.67
2022-11-13T18:46:41.693Z,10.97
2022-11-13T18:49:09.881Z,15.90
2022-11-13T18:51:41.014Z,18.03
2022-11-13T18:54:11.563Z,18.80
2022-11-13T18:56:41.083Z,16.50
2022-11-13T18:59:10.286Z,12.87
2022-11-13T19:01:39.916Z,12.50
2022-11-13T19:04:26.891Z,10.63
2022-11-13T19:06:54.899Z,10.67
2022-11-13T19:09:23.008Z,14.27
2022-11-13T19:11:52.439Z,10.67
2022-11-13T19:14:22.516Z,10.37
2022-11-13T19:16:59.497Z,10.17
2022-11-13T19:19:27.371Z,12.23
2022-11-13T19:21:55.445Z,11.40
2022-11-13T19:24:26.411Z,11.53
2022-11-13T19:26:55.921Z,10.63
2022-11-13T19:29:23.821Z,11.90
2022-11-13T19:31:53.671Z,12.43
2022-11-13T19:34:21.558Z,13.30
2022-11-13T19:36:51.403Z,9.83
2022-11-13T19:39:20.082Z,10.50
2022-11-13T19:41:48.151Z,8.20
2022-11-13T19:44:17.418Z,9.57
2022-11-13T19:46:45.503Z,11.67
2022-11-13T19:49:13.392Z,10.03
2022-11-13T19:51:41.323Z,9.57
2022-11-13T19:54:09.496Z,9.40
2022-11-13T19:56:40.564Z,7.07
2022-11-13T19:59:18.021Z,7.70
2022-11-13T20:01:47.447Z,7.33
2022-11-13T20:04:15.479Z,9.60
2022-11-13T20:06:43.500Z,8.07
2022-11-13T20:09:17.652Z,8.67
2022-11-13T20:11:45.826Z,9.67
2022-11-13T20:14:14.063Z,9.47
2022-11-13T20:16:42.125Z,9.90
2022-11-13T20:19:11.550Z,10.73
2022-11-13T20:21:40.813Z,9.77
2022-11-13T20:24:11.364Z,9.33
2022-11-13T20:26:39.380Z,9.10
2022-11-13T20:29:07.364Z,15.70
2022-11-13T20:31:35.302Z,10.40
2022-11-13T20:34:03.450Z,9.30
2022-11-13T20:36:33.063Z,10.90
2022-11-13T20:39:04.420Z,12.83
2022-11-13T20:41:36.648Z,12.90
2022-11-13T20:44:04.741Z,13.30
2022-11-13T20:46:33.162Z,15.13
2022-11-13T20:49:01.294Z,13.30
2022-11-13T20:51:30.013Z,11.83
2022-11-13T20:53:59.466Z,11.17
2022-11-13T20:56:27.962Z,10.63
2022-11-13T20:58:55.933Z,10.30
2022-11-13T21:01:25.869Z,10.33
2022-11-13T21:03:54.024Z,10.03
2022-11-13T21:06:24.743Z,12.17
2022-11-13T21:08:56.448Z,11.23
2022-11-13T21:11:26.472Z,10.37
2022-11-13T21:13:58.260Z,9.50
2022-11-13T21:16:29.426Z,12.30
2022-11-13T21:19:01.636Z,9.33
2022-11-13T21:21:30.961Z,8.93
2022-11-13T21:24:01.048Z,11.13
2022-11-13T21:26:32.247Z,9.60
2022-11-13T21:29:03.445Z,9.40
2022-11-13T21:31:31.542Z,11.03
2022-11-13T21:34:00.945Z,9.33
2022-11-13T21:36:30.429Z,8.20
2022-11-13T21:38:58.429Z,8.53
2022-11-13T21:41:26.934Z,8.20
2022-11-13T21:43:58.139Z,9.57
2022-11-13T21:46:28.143Z,9.37
2022-11-13T21:48:58.364Z,8.57
2022-11-13T21:51:28.527Z,8.70
2022-11-13T21:53:56.750Z,9.27
2022-11-13T21:56:25.505Z,9.50
2022-11-13T21:58:53.472Z,7.80
2022-11-13T22:01:24.309Z,7.43
2022-11-13T22:03:52.229Z,9.03
2022-11-13T22:06:22.242Z,10.37
2022-11-13T22:09:04.908Z,9.80
2022-11-13T22:11:34.841Z,8.53
2022-11-13T22:14:08.383Z,7.60
2022-11-13T22:16:39.392Z,8.00
2022-11-13T22:19:14.737Z,9.23
2022-11-13T22:21:42.991Z,13.27
2022-11-13T22:24:25.466Z,10.10
2022-11-13T22:27:00.660Z,9.23
2022-11-13T22:29:28.509Z,8.53
2022-11-13T22:31:57.755Z,10.27
2022-11-13T22:34:25.655Z,9.93
2022-11-13T22:36:53.512Z,8.90
2022-11-13T22:39:21.590Z,9.23
2022-11-13T22:41:49.530Z,8.50
2022-11-13T22:44:17.736Z,11.17
2022-11-13T22:46:45.756Z,8.67
2022-11-13T22:49:15.080Z,9.23
2022-11-13T22:51:43.190Z,9.97
2022-11-13T22:54:12.617Z,9.60
2022-11-13T22:56:42.202Z,10.50
2022-11-13T22:59:12.083Z,10.33
2022-11-13T23:01:42.840Z,10.10
2022-11-13T23:04:14.850Z,11.13
2022-11-13T23:06:43.220Z,8.67
2022-11-13T23:09:11.776Z,8.50
2022-11-13T23:11:42.178Z,11.97
2022-11-13T23:14:15.243Z,9.33
2022-11-13T23:16:43.199Z,9.60
2022-11-13T23:19:11.445Z,10.77
2022-11-13T23:21:40.724Z,11.30
2022-11-13T23:24:10.739Z,10.73
2022-11-13T23:26:39.122Z,10.43
2022-11-13T23:29:07.221Z,11.93
2022-11-13T23:31:35.128Z,11.50
2022-11-13T23:34:03.463Z,10.30
2022-11-13T23:36:31.458Z,12.93
2022-11-13T23:39:00.845Z,12.67
2022-11-13T23:41:28.758Z,11.27
2022-11-13T23:44:12.048Z,9.83
2022-11-13T23:46:40.233Z,11.20
2022-11-13T23:49:08.149Z,12.83
2022-11-13T23:51:36.155Z,12.03
2022-11-13T23:54:05.564Z,12.27
2022-11-13T23:56:33.498Z,11.70
2022-11-13T23:59:01.406Z,11.30
